Time;durP1;ratioP1;P1;durP2;ratioP2;P2;SDS_P1;SDS_P2;PMS_P1;PMS_P2;Temp;Humidity;BMP_temperature;BMP_pressure;BME280_temperature;BME280_humidity;BME280_pressure;Samples;Min_cycle;Max_cycle;Signal;HPM_P1;HPM_P2
2022/09/19 00:00:47;;;;;;;0.30;0.22;;;;;;;;;;5056856;28;20240;-64
2022/09/19 00:03:15;;;;;;;0.85;0.40;;;;;;;;;;5056838;28;20300;-65
2022/09/19 00:05:42;;;;;;;0.40;0.40;;;;;;;;;;5057032;28;20569;-64
2022/09/19 00:08:10;;;;;;;0.30;0.30;;;;;;;;;;5056661;28;20240;-64
2022/09/19 00:10:39;;;;;;;0.85;0.30;;;;;;;;;;5051881;28;20197;-64
2022/09/19 00:13:07;;;;;;;0.40;0.30;;;;;;;;;;5040567;28;20598;-65
2022/09/19 00:15:35;;;;;;;1.10;0.30;;;;;;;;;;5041079;28;20490;-64
2022/09/19 00:18:04;;;;;;;0.50;0.40;;;;;;;;;;5041147;28;20493;-64
2022/09/19 00:20:33;;;;;;;0.60;0.30;;;;;;;;;;5041253;28;20298;-65
2022/09/19 00:25:46;;;;;;;0.40;0.20;;;;;;;;;;5040632;28;20192;-64
2022/09/19 00:28:13;;;;;;;0.47;0.30;;;;;;;;;;5040883;28;20267;-64
2022/09/19 00:30:41;;;;;;;0.30;0.30;;;;;;;;;;5040728;28;20271;-64
2022/09/19 00:33:12;;;;;;;0.40;0.28;;;;;;;;;;5040627;28;20305;-64
2022/09/19 00:35:39;;;;;;;0.30;0.30;;;;;;;;;;5040368;28;20656;-64
2022/09/19 00:38:07;;;;;;;0.75;0.22;;;;;;;;;;5040446;28;20226;-64
2022/09/19 00:40:35;;;;;;;0.95;0.38;;;;;;;;;;5040339;28;20237;-64
2022/09/19 00:43:03;;;;;;;0.98;0.38;;;;;;;;;;5040842;28;20233;-65
2022/09/19 00:45:30;;;;;;;0.55;0.30;;;;;;;;;;5040704;28;20217;-64
2022/09/19 00:47:57;;;;;;;0.63;0.30;;;;;;;;;;5040481;28;20289;-64
2022/09/19 00:50:28;;;;;;;0.25;0.20;;;;;;;;;;5040487;28;20205;-64
2022/09/19 00:52:58;;;;;;;0.30;0.30;;;;;;;;;;5039902;28;20656;-64
2022/09/19 00:55:26;;;;;;;0.30;0.20;;;;;;;;;;5040198;28;20701;-64
2022/09/19 00:57:57;;;;;;;0.38;0.28;;;;;;;;;;5039661;28;20280;-64
2022/09/19 01:00:25;;;;;;;0.40;0.30;;;;;;;;;;5040255;28;20205;-64
2022/09/19 01:02:52;;;;;;;0.25;0.20;;;;;;;;;;5040378;28;20341;-64
2022/09/19 01:05:22;;;;;;;0.30;0.30;;;;;;;;;;5039864;28;20215;-65
2022/09/19 01:08:01;;;;;;;0.20;0.20;;;;;;;;;;5040093;28;20688;-64
2022/09/19 01:10:38;;;;;;;0.30;0.30;;;;;;;;;;5039544;28;20197;-64
2022/09/19 01:13:10;;;;;;;0.65;0.20;;;;;;;;;;5040161;28;20205;-64
2022/09/19 01:15:42;;;;;;;0.50;0.30;;;;;;;;;;5039714;28;20681;-65
2022/09/19 01:18:10;;;;;;;0.30;0.30;;;;;;;;;;5039594;28;20325;-64
2022/09/19 01:21:37;;;;;;;0.43;0.32;;;;;;;;;;5039958;28;20249;-64
2022/09/19 01:24:00;;;;;;;0.35;0.30;;;;;;;;;;5038472;28;20201;-64
2022/09/19 01:26:38;;;;;;;0.40;0.30;;;;;;;;;;5039640;28;20776;-64
2022/09/19 01:29:10;;;;;;;0.30;0.30;;;;;;;;;;5039620;28;20202;-64
2022/09/19 01:31:39;;;;;;;0.30;0.22;;;;;;;;;;5039406;28;20292;-64
2022/09/19 01:34:08;;;;;;;0.35;0.30;;;;;;;;;;5039176;28;20307;-64
2022/09/19 01:36:38;;;;;;;0.55;0.40;;;;;;;;;;5039713;28;20491;-65
2022/09/19 01:39:08;;;;;;;0.70;0.25;;;;;;;;;;5039054;28;20272;-64
2022/09/19 01:41:36;;;;;;;1.05;0.30;;;;;;;;;;5039585;28;20205;-64
2022/09/19 01:44:05;;;;;;;0.30;0.30;;;;;;;;;;5039158;28;20205;-65
2022/09/19 01:46:39;;;;;;;0.60;0.30;;;;;;;;;;5039626;28;20209;-64
2022/09/19 01:49:08;;;;;;;0.38;0.30;;;;;;;;;;5039123;28;20212;-64
2022/09/19 01:51:39;;;;;;;0.73;0.40;;;;;;;;;;5039316;28;20249;-65
2022/09/19 01:54:15;;;;;;;0.30;0.22;;;;;;;;;;5039556;28;20209;-65
2022/09/19 01:56:45;;;;;;;0.47;0.32;;;;;;;;;;5039190;28;20225;-64
2022/09/19 01:59:20;;;;;;;0.30;0.20;;;;;;;;;;5038668;28;20265;-64
2022/09/19 02:01:51;;;;;;;0.30;0.20;;;;;;;;;;5039251;28;20259;-64
2022/09/19 02:04:22;;;;;;;0.28;0.28;;;;;;;;;;5039254;28;20296;-64
2022/09/19 02:06:51;;;;;;;0.20;0.20;;;;;;;;;;5038375;28;20213;-64
2022/09/19 02:09:23;;;;;;;0.55;0.20;;;;;;;;;;5039437;28;20269;-64
2022/09/19 02:11:51;;;;;;;0.20;0.20;;;;;;;;;;5038615;28;20292;-64
2022/09/19 02:14:21;;;;;;;0.30;0.30;;;;;;;;;;5039029;28;20271;-64
2022/09/19 02:16:52;;;;;;;0.45;0.30;;;;;;;;;;5038756;28;20212;-64
2022/09/19 02:19:22;;;;;;;0.13;0.13;;;;;;;;;;5038568;28;20428;-64
2022/09/19 02:21:53;;;;;;;0.20;0.20;;;;;;;;;;5038181;28;20232;-64
2022/09/19 02:24:22;;;;;;;0.50;0.30;;;;;;;;;;5038659;28;20248;-64
2022/09/19 02:26:51;;;;;;;0.98;0.20;;;;;;;;;;5038444;28;20668;-65
2022/09/19 02:29:22;;;;;;;0.30;0.25;;;;;;;;;;5038219;28;20911;-64
2022/09/19 02:31:54;;;;;;;0.28;0.20;;;;;;;;;;5038656;28;20216;-64
2022/09/19 02:34:21;;;;;;;0.20;0.10;;;;;;;;;;5038337;28;20229;-64
2022/09/19 02:36:52;;;;;;;0.17;0.15;;;;;;;;;;5038138;28;20237;-64
2022/09/19 02:39:22;;;;;;;0.30;0.20;;;;;;;;;;5038166;28;20264;-64
2022/09/19 02:41:54;;;;;;;0.60;0.22;;;;;;;;;;5038796;28;20637;-64
2022/09/19 02:44:24;;;;;;;0.20;0.20;;;;;;;;;;5037625;28;20261;-64
2022/09/19 02:46:56;;;;;;;0.25;0.25;;;;;;;;;;5038345;28;20557;-64
2022/09/19 02:49:30;;;;;;;0.38;0.30;;;;;;;;;;5038745;28;20300;-64
2022/09/19 02:51:59;;;;;;;0.20;0.20;;;;;;;;;;5038482;28;20205;-65
2022/09/19 02:54:28;;;;;;;0.10;0.10;;;;;;;;;;5038668;28;20206;-64
2022/09/19 02:56:58;;;;;;;1.02;0.28;;;;;;;;;;5038025;28;20217;-64
2022/09/19 02:59:29;;;;;;;0.40;0.20;;;;;;;;;;5037844;28;20320;-64
2022/09/19 03:02:00;;;;;;;0.47;0.38;;;;;;;;;;5037837;28;20210;-64
2022/09/19 03:04:29;;;;;;;0.43;0.28;;;;;;;;;;5038183;28;20237;-64
2022/09/19 03:07:00;;;;;;;0.30;0.25;;;;;;;;;;5037557;28;20202;-64
2022/09/19 03:09:29;;;;;;;0.20;0.20;;;;;;;;;;5037414;28;20594;-65
2022/09/19 03:12:00;;;;;;;0.20;0.17;;;;;;;;;;5037896;28;20225;-64
2022/09/19 03:14:31;;;;;;;0.98;0.30;;;;;;;;;;5037734;28;20228;-64
2022/09/19 03:17:01;;;;;;;0.30;0.30;;;;;;;;;;5037587;28;20244;-64
2022/09/19 03:19:30;;;;;;;0.73;0.20;;;;;;;;;;5037939;28;20240;-64
2022/09/19 03:21:58;;;;;;;0.43;0.20;;;;;;;;;;5037500;28;20206;-65
2022/09/19 03:24:27;;;;;;;1.02;0.30;;;;;;;;;;5038231;28;20206;-65
2022/09/19 03:26:54;;;;;;;0.70;0.20;;;;;;;;;;5037390;28;20217;-64
2022/09/19 03:29:22;;;;;;;0.20;0.20;;;;;;;;;;5037827;28;20666;-71
2022/09/19 03:31:52;;;;;;;0.35;0.20;;;;;;;;;;5037901;28;20269;-64
2022/09/19 03:34:21;;;;;;;0.40;0.28;;;;;;;;;;5037067;28;20241;-64
2022/09/19 03:36:48;;;;;;;0.20;0.20;;;;;;;;;;5037114;28;20312;-64
2022/09/19 03:39:16;;;;;;;0.25;0.10;;;;;;;;;;5036358;28;20225;-64
2022/09/19 03:41:44;;;;;;;0.40;0.20;;;;;;;;;;5037749;28;20465;-65
2022/09/19 03:44:12;;;;;;;0.28;0.20;;;;;;;;;;5036481;28;20279;-64
2022/09/19 03:46:43;;;;;;;0.50;0.20;;;;;;;;;;5036415;28;20205;-64
2022/09/19 03:49:12;;;;;;;0.22;0.20;;;;;;;;;;5036424;28;20202;-64
2022/09/19 03:51:43;;;;;;;0.20;0.20;;;;;;;;;;5036839;28;20578;-64
2022/09/19 03:54:10;;;;;;;0.20;0.20;;;;;;;;;;5036963;28;20228;-64
2022/09/19 03:56:37;;;;;;;0.20;0.20;;;;;;;;;;5037399;28;20300;-65
2022/09/19 03:59:05;;;;;;;0.30;0.30;;;;;;;;;;5036596;28;20272;-64
2022/09/19 04:01:33;;;;;;;0.20;0.20;;;;;;;;;;5036477;28;20661;-64
2022/09/19 04:04:00;;;;;;;0.10;0.10;;;;;;;;;;5036890;28;20205;-64
2022/09/19 04:06:28;;;;;;;1.08;0.20;;;;;;;;;;5036471;28;20556;-64
2022/09/19 04:08:57;;;;;;;0.50;0.20;;;;;;;;;;5036741;28;20228;-64
2022/09/19 04:11:24;;;;;;;0.30;0.30;;;;;;;;;;5036024;28;20280;-64
2022/09/19 04:13:52;;;;;;;0.10;0.10;;;;;;;;;;5036802;28;20267;-65
2022/09/19 04:16:20;;;;;;;0.43;0.30;;;;;;;;;;5035848;28;20213;-64
2022/09/19 04:18:50;;;;;;;0.73;0.15;;;;;;;;;;5035732;28;20271;-64
2022/09/19 04:21:17;;;;;;;0.45;0.13;;;;;;;;;;5036098;28;20209;-64
2022/09/19 04:23:45;;;;;;;0.30;0.20;;;;;;;;;;5036210;28;20206;-64
2022/09/19 04:26:14;;;;;;;0.52;0.10;;;;;;;;;;5035589;28;20256;-64
2022/09/19 04:28:43;;;;;;;0.30;0.20;;;;;;;;;;5035496;28;20665;-65
2022/09/19 04:31:12;;;;;;;0.20;0.20;;;;;;;;;;5035305;28;20558;-64
2022/09/19 04:33:39;;;;;;;0.98;0.30;;;;;;;;;;5036087;28;20224;-64
2022/09/19 04:36:08;;;;;;;0.20;0.20;;;;;;;;;;5034404;28;20272;-64
2022/09/19 04:38:36;;;;;;;0.30;0.20;;;;;;;;;;5034856;28;20660;-64
2022/09/19 04:41:04;;;;;;;0.20;0.20;;;;;;;;;;5034349;28;20216;-64
2022/09/19 04:43:33;;;;;;;0.15;0.15;;;;;;;;;;5034413;28;20652;-64
2022/09/19 04:46:01;;;;;;;0.40;0.30;;;;;;;;;;5034707;28;20218;-64
2022/09/19 04:48:30;;;;;;;0.20;0.20;;;;;;;;;;5034668;28;20305;-64
2022/09/19 04:50:57;;;;;;;0.20;0.20;;;;;;;;;;5034764;28;20206;-64
2022/09/19 04:53:30;;;;;;;0.20;0.20;;;;;;;;;;5034702;28;20609;-64
2022/09/19 04:55:58;;;;;;;0.20;0.17;;;;;;;;;;5034217;28;20633;-65
2022/09/19 04:58:25;;;;;;;0.20;0.10;;;;;;;;;;5037110;28;20716;-64
2022/09/19 05:00:55;;;;;;;0.20;0.10;;;;;;;;;;5038785;28;20237;-64
2022/09/19 05:03:25;;;;;;;0.22;0.20;;;;;;;;;;5037529;28;20642;-64
2022/09/19 05:05:53;;;;;;;0.30;0.20;;;;;;;;;;5037711;28;20240;-63
2022/09/19 05:08:25;;;;;;;0.30;0.30;;;;;;;;;;5037780;28;20292;-64
2022/09/19 05:10:54;;;;;;;0.30;0.20;;;;;;;;;;5035686;28;20270;-64
2022/09/19 05:13:23;;;;;;;0.20;0.20;;;;;;;;;;5036742;28;20248;-64
2022/09/19 05:15:51;;;;;;;0.30;0.20;;;;;;;;;;5037255;28;20209;-64
2022/09/19 05:18:21;;;;;;;0.20;0.15;;;;;;;;;;5036875;28;20257;-65
2022/09/19 05:20:48;;;;;;;0.13;0.10;;;;;;;;;;5036362;28;20213;-64
2022/09/19 05:23:16;;;;;;;0.20;0.20;;;;;;;;;;5036328;28;20232;-64
2022/09/19 05:25:44;;;;;;;0.20;0.20;;;;;;;;;;5037682;28;20245;-64
2022/09/19 05:28:11;;;;;;;0.30;0.22;;;;;;;;;;5036964;28;20830;-64
2022/09/19 05:30:40;;;;;;;0.30;0.20;;;;;;;;;;5036292;28;20299;-64
2022/09/19 05:33:08;;;;;;;0.20;0.20;;;;;;;;;;5035633;28;20264;-64
2022/09/19 05:35:37;;;;;;;0.30;0.20;;;;;;;;;;5036845;28;20340;-64
2022/09/19 05:38:04;;;;;;;0.20;0.20;;;;;;;;;;5036193;28;20214;-65
2022/09/19 05:40:32;;;;;;;0.25;0.20;;;;;;;;;;5036297;28;20201;-64
2022/09/19 05:43:02;;;;;;;0.55;0.20;;;;;;;;;;5036759;28;20206;-64
2022/09/19 05:45:31;;;;;;;0.30;0.20;;;;;;;;;;5036074;28;20214;-64
2022/09/19 05:48:02;;;;;;;0.30;0.30;;;;;;;;;;5036385;28;20205;-64
2022/09/19 05:50:30;;;;;;;0.10;0.10;;;;;;;;;;5035849;28;20202;-64
2022/09/19 05:55:57;;;;;;;0.10;0.10;;;;;;;;;;4957188;29;20819;-64
2022/09/19 05:58:24;;;;;;;0.20;0.20;;;;;;;;;;5017312;28;20669;-64
2022/09/19 06:00:52;;;;;;;0.32;0.32;;;;;;;;;;5035759;28;20252;-64
2022/09/19 06:03:21;;;;;;;0.17;0.15;;;;;;;;;;5036095;28;20275;-64
2022/09/19 06:05:50;;;;;;;0.20;0.17;;;;;;;;;;5035725;28;20305;-64
2022/09/19 06:08:21;;;;;;;0.43;0.20;;;;;;;;;;5046879;28;20220;-65
2022/09/19 06:10:48;;;;;;;0.20;0.20;;;;;;;;;;5048543;28;20202;-64
2022/09/19 06:13:16;;;;;;;0.20;0.20;;;;;;;;;;5036338;28;20313;-64
2022/09/19 06:15:44;;;;;;;0.30;0.20;;;;;;;;;;5036613;28;20205;-64
2022/09/19 06:18:12;;;;;;;0.32;0.20;;;;;;;;;;5036312;28;20304;-65
2022/09/19 06:20:39;;;;;;;0.55;0.20;;;;;;;;;;5035754;28;20261;-64
2022/09/19 06:23:08;;;;;;;0.20;0.20;;;;;;;;;;5036955;28;20213;-64
2022/09/19 06:25:38;;;;;;;0.22;0.20;;;;;;;;;;5036929;28;20237;-64
2022/09/19 06:28:10;;;;;;;0.20;0.20;;;;;;;;;;5036005;28;20582;-64
2022/09/19 06:30:37;;;;;;;0.73;0.20;;;;;;;;;;5035885;28;20265;-64
2022/09/19 06:33:07;;;;;;;0.40;0.30;;;;;;;;;;5035656;28;20252;-64
2022/09/19 06:35:35;;;;;;;0.60;0.25;;;;;;;;;;5035031;28;20535;-64
2022/09/19 06:38:03;;;;;;;0.30;0.30;;;;;;;;;;5036256;28;20465;-64
2022/09/19 06:40:31;;;;;;;0.40;0.20;;;;;;;;;;5035610;28;20610;-64
2022/09/19 06:43:01;;;;;;;0.45;0.30;;;;;;;;;;5036199;28;20241;-64
2022/09/19 06:45:29;;;;;;;0.30;0.30;;;;;;;;;;5035450;28;20594;-65
2022/09/19 06:47:58;;;;;;;0.25;0.20;;;;;;;;;;5035520;28;20216;-64
2022/09/19 06:50:26;;;;;;;0.70;0.22;;;;;;;;;;5035641;28;20212;-64
2022/09/19 06:52:54;;;;;;;0.98;0.38;;;;;;;;;;5035959;28;20267;-64
2022/09/19 06:55:23;;;;;;;0.20;0.20;;;;;;;;;;5035457;28;20493;-64
2022/09/19 06:57:55;;;;;;;0.50;0.30;;;;;;;;;;5035786;28;20201;-63
2022/09/19 07:00:25;;;;;;;0.40;0.40;;;;;;;;;;5035294;28;20271;-65
2022/09/19 07:02:54;;;;;;;0.30;0.30;;;;;;;;;;5035821;28;20296;-65
2022/09/19 07:05:22;;;;;;;0.85;0.40;;;;;;;;;;5035160;28;20665;-64
2022/09/19 07:07:51;;;;;;;0.35;0.20;;;;;;;;;;5035220;28;20305;-65
2022/09/19 07:10:20;;;;;;;0.73;0.40;;;;;;;;;;5035144;28;20496;-64
2022/09/19 07:12:52;;;;;;;0.60;0.20;;;;;;;;;;5035579;28;20681;-64
2022/09/19 07:15:20;;;;;;;1.05;0.30;;;;;;;;;;5034327;28;20212;-64
2022/09/19 07:17:48;;;;;;;0.25;0.20;;;;;;;;;;5034866;28;20565;-64
2022/09/19 07:20:16;;;;;;;1.02;0.30;;;;;;;;;;5035209;28;20264;-64
2022/09/19 07:22:43;;;;;;;1.85;0.40;;;;;;;;;;5035840;28;20297;-64
2022/09/19 07:25:11;;;;;;;0.25;0.22;;;;;;;;;;5035103;28;20202;-64
2022/09/19 07:27:40;;;;;;;0.60;0.28;;;;;;;;;;5034686;28;20205;-64
2022/09/19 07:30:08;;;;;;;0.38;0.30;;;;;;;;;;5034796;28;20206;-64
2022/09/19 07:32:35;;;;;;;0.93;0.40;;;;;;;;;;5035420;28;20486;-64
2022/09/19 07:35:05;;;;;;;0.45;0.30;;;;;;;;;;5034200;28;20234;-64
2022/09/19 07:37:32;;;;;;;0.38;0.38;;;;;;;;;;5035149;28;20198;-64
2022/09/19 07:39:59;;;;;;;0.68;0.30;;;;;;;;;;5034764;28;20629;-64
2022/09/19 07:42:27;;;;;;;0.38;0.25;;;;;;;;;;5034781;28;20310;-64
2022/09/19 07:44:55;;;;;;;0.30;0.30;;;;;;;;;;5035099;28;20259;-64
2022/09/19 07:47:28;;;;;;;0.20;0.20;;;;;;;;;;5035260;28;20206;-64
2022/09/19 07:49:55;;;;;;;1.17;0.30;;;;;;;;;;5034672;28;20286;-65
2022/09/19 07:52:24;;;;;;;0.75;0.30;;;;;;;;;;5034649;28;20212;-64
2022/09/19 07:54:52;;;;;;;0.82;0.30;;;;;;;;;;5034585;28;20544;-64
2022/09/19 07:57:20;;;;;;;0.75;0.30;;;;;;;;;;5034452;28;20252;-64
2022/09/19 07:59:48;;;;;;;0.40;0.40;;;;;;;;;;5034260;28;20316;-64
2022/09/19 08:02:15;;;;;;;0.30;0.30;;;;;;;;;;5034330;28;20213;-64
2022/09/19 08:04:44;;;;;;;0.30;0.30;;;;;;;;;;5034951;28;20292;-64
2022/09/19 08:07:11;;;;;;;0.65;0.30;;;;;;;;;;5033895;28;20205;-64
2022/09/19 08:09:40;;;;;;;0.50;0.47;;;;;;;;;;5033562;28;20296;-64
2022/09/19 08:12:11;;;;;;;0.28;0.20;;;;;;;;;;5033294;28;20292;-64
2022/09/19 08:14:39;;;;;;;0.22;0.22;;;;;;;;;;5033459;28;20202;-64
2022/09/19 08:17:06;;;;;;;0.30;0.20;;;;;;;;;;5033848;28;20300;-64
2022/09/19 08:19:34;;;;;;;0.30;0.30;;;;;;;;;;5034117;28;20283;-64
2022/09/19 08:22:02;;;;;;;0.50;0.40;;;;;;;;;;5033982;28;20248;-64
2022/09/19 08:24:29;;;;;;;0.50;0.30;;;;;;;;;;5032783;28;20245;-64
2022/09/19 08:26:58;;;;;;;0.40;0.30;;;;;;;;;;5034342;28;20271;-64
2022/09/19 08:29:27;;;;;;;0.38;0.30;;;;;;;;;;5033841;28;20300;-64
2022/09/19 08:31:54;;;;;;;0.38;0.22;;;;;;;;;;5034114;28;20316;-65
2022/09/19 08:34:22;;;;;;;0.22;0.22;;;;;;;;;;5037278;28;20333;-65
2022/09/19 08:36:49;;;;;;;0.35;0.30;;;;;;;;;;5037677;28;20300;-64
2022/09/19 08:39:17;;;;;;;0.30;0.20;;;;;;;;;;5037033;28;20302;-64
2022/09/19 08:41:58;;;;;;;0.22;0.22;;;;;;;;;;5037863;28;20574;-64
2022/09/19 08:44:31;;;;;;;0.40;0.30;;;;;;;;;;5038181;28;20293;-64
2022/09/19 08:47:04;;;;;;;0.30;0.30;;;;;;;;;;5037669;28;20209;-64
2022/09/19 08:49:35;;;;;;;0.50;0.30;;;;;;;;;;5037459;28;20233;-64
2022/09/19 08:52:03;;;;;;;0.40;0.30;;;;;;;;;;5037505;28;20567;-64
2022/09/19 08:54:32;;;;;;;0.35;0.32;;;;;;;;;;5036812;28;20499;-64
2022/09/19 08:57:00;;;;;;;0.70;0.40;;;;;;;;;;5037255;28;20347;-64
2022/09/19 08:59:34;;;;;;;0.30;0.30;;;;;;;;;;5037532;28;20226;-64
2022/09/19 09:02:05;;;;;;;0.30;0.30;;;;;;;;;;5037083;28;20205;-64
2022/09/19 09:04:33;;;;;;;0.40;0.30;;;;;;;;;;5036912;28;20206;-64
2022/09/19 09:07:09;;;;;;;0.28;0.25;;;;;;;;;;5035543;28;20593;-64
2022/09/19 09:09:42;;;;;;;1.45;0.40;;;;;;;;;;5036290;28;20208;-64
2022/09/19 09:12:17;;;;;;;0.50;0.30;;;;;;;;;;5036570;28;20198;-64
2022/09/19 09:14:48;;;;;;;0.30;0.30;;;;;;;;;;5036603;28;20616;-64
2022/09/19 09:17:20;;;;;;;0.32;0.32;;;;;;;;;;5035966;28;20213;-64
2022/09/19 09:19:54;;;;;;;0.65;0.20;;;;;;;;;;5036736;28;20229;-64
2022/09/19 09:22:24;;;;;;;0.45;0.30;;;;;;;;;;5036631;28;20311;-64
2022/09/19 09:24:55;;;;;;;0.50;0.30;;;;;;;;;;5035355;28;20756;-64
2022/09/19 09:27:25;;;;;;;0.30;0.30;;;;;;;;;;5036817;28;20288;-64
2022/09/19 09:29:57;;;;;;;0.40;0.30;;;;;;;;;;5035293;28;20267;-65
2022/09/19 09:32:30;;;;;;;0.30;0.20;;;;;;;;;;5036414;28;20241;-64
2022/09/19 09:35:00;;;;;;;0.35;0.30;;;;;;;;;;5035988;28;20255;-64
2022/09/19 09:37:30;;;;;;;0.70;0.40;;;;;;;;;;5036055;28;20220;-64
2022/09/19 09:40:00;;;;;;;0.30;0.20;;;;;;;;;;5036754;28;20225;-64
2022/09/19 09:42:32;;;;;;;0.63;0.30;;;;;;;;;;5036659;28;20240;-64
2022/09/19 09:45:04;;;;;;;0.40;0.30;;;;;;;;;;5034645;28;20201;-64
2022/09/19 09:47:41;;;;;;;0.30;0.28;;;;;;;;;;5036327;28;20719;-65
2022/09/19 09:50:15;;;;;;;0.28;0.28;;;;;;;;;;5035000;28;20210;-64
2022/09/19 09:52:45;;;;;;;0.22;0.20;;;;;;;;;;5036091;28;20668;-64
2022/09/19 09:58:16;;;;;;;0.30;0.30;;;;;;;;;;5035937;28;20242;-64
2022/09/19 10:03:39;;;;;;;0.45;0.40;;;;;;;;;;5035374;28;20197;-64
2022/09/19 10:06:11;;;;;;;0.20;0.20;;;;;;;;;;5035440;28;20202;-64
2022/09/19 10:08:40;;;;;;;0.45;0.45;;;;;;;;;;5035447;28;20216;-64
2022/09/19 10:11:12;;;;;;;0.40;0.35;;;;;;;;;;5035836;28;20617;-65
2022/09/19 10:13:44;;;;;;;0.77;0.30;;;;;;;;;;5035257;28;20763;-64
2022/09/19 10:16:14;;;;;;;0.40;0.30;;;;;;;;;;5034361;28;20231;-64
2022/09/19 10:18:44;;;;;;;0.38;0.30;;;;;;;;;;5034548;28;20206;-64
2022/09/19 10:21:11;;;;;;;0.40;0.30;;;;;;;;;;5034962;28;20222;-64
2022/09/19 10:23:45;;;;;;;0.45;0.20;;;;;;;;;;5035398;28;20636;-64
2022/09/19 10:26:15;;;;;;;0.30;0.30;;;;;;;;;;5034756;28;20202;-64
2022/09/19 10:28:48;;;;;;;0.20;0.20;;;;;;;;;;5034244;28;20578;-65
2022/09/19 10:31:23;;;;;;;0.22;0.22;;;;;;;;;;5035223;28;20241;-65
2022/09/19 10:33:51;;;;;;;0.32;0.20;;;;;;;;;;5034518;28;20676;-64
2022/09/19 10:36:20;;;;;;;0.52;0.30;;;;;;;;;;5034748;28;20308;-64
2022/09/19 10:38:56;;;;;;;0.35;0.30;;;;;;;;;;5033966;28;20717;-64
2022/09/19 10:41:25;;;;;;;0.32;0.30;;;;;;;;;;5034940;28;20264;-64
2022/09/19 10:43:54;;;;;;;0.95;0.30;;;;;;;;;;5034837;28;20331;-64
2022/09/19 10:46:23;;;;;;;0.50;0.43;;;;;;;;;;5034988;28;20320;-64
2022/09/19 10:48:52;;;;;;;0.45;0.25;;;;;;;;;;5034013;28;20206;-64
2022/09/19 10:51:20;;;;;;;0.80;0.40;;;;;;;;;;5034681;28;20248;-64
2022/09/19 10:53:50;;;;;;;0.52;0.30;;;;;;;;;;5034486;28;20300;-64
2022/09/19 10:56:23;;;;;;;0.80;0.30;;;;;;;;;;5034514;28;20292;-64
2022/09/19 10:58:52;;;;;;;1.42;0.40;;;;;;;;;;5033701;28;20206;-64
2022/09/19 11:01:24;;;;;;;0.52;0.28;;;;;;;;;;5034297;28;20256;-64
2022/09/19 11:04:05;;;;;;;0.40;0.40;;;;;;;;;;5034186;28;20213;-64
2022/09/19 11:06:35;;;;;;;1.20;0.45;;;;;;;;;;5035003;28;20292;-64
2022/09/19 11:09:07;;;;;;;0.73;0.32;;;;;;;;;;5033526;28;20759;-64
2022/09/19 11:11:45;;;;;;;0.85;0.43;;;;;;;;;;5033713;28;20293;-64
2022/09/19 11:14:18;;;;;;;0.60;0.40;;;;;;;;;;5033858;28;20205;-64
2022/09/19 11:17:00;;;;;;;0.43;0.43;;;;;;;;;;5034645;28;20205;-64
2022/09/19 11:19:32;;;;;;;0.82;0.45;;;;;;;;;;5034272;28;20205;-64
2022/09/19 11:22:07;;;;;;;0.85;0.60;;;;;;;;;;5033416;28;20244;-64
2022/09/19 11:24:40;;;;;;;1.45;0.40;;;;;;;;;;5034413;28;20295;-64
2022/09/19 11:27:17;;;;;;;0.90;0.55;;;;;;;;;;5034098;28;20544;-64
2022/09/19 11:29:52;;;;;;;0.50;0.50;;;;;;;;;;5034083;28;20236;-64
2022/09/19 11:32:34;;;;;;;0.80;0.60;;;;;;;;;;5033548;28;20216;-64
2022/09/19 11:35:07;;;;;;;1.05;0.70;;;;;;;;;;5033159;28;20346;-64
2022/09/19 11:37:42;;;;;;;1.05;0.68;;;;;;;;;;5034338;28;20212;-64
2022/09/19 11:40:19;;;;;;;1.75;0.80;;;;;;;;;;5034004;28;20340;-64
2022/09/19 11:42:50;;;;;;;1.10;0.65;;;;;;;;;;5033968;28;20283;-64
2022/09/19 11:45:18;;;;;;;1.63;0.82;;;;;;;;;;5033349;28;20276;-64
2022/09/19 11:48:03;;;;;;;1.17;0.80;;;;;;;;;;5033721;28;20206;-64
2022/09/19 11:50:39;;;;;;;0.75;0.60;;;;;;;;;;5033733;28;20233;-64
2022/09/19 11:53:18;;;;;;;0.80;0.70;;;;;;;;;;5032918;28;20205;-64
2022/09/19 11:55:48;;;;;;;1.67;0.80;;;;;;;;;;5033461;28;20213;-64
2022/09/19 11:58:21;;;;;;;1.52;1.00;;;;;;;;;;5033594;28;20631;-64
2022/09/19 12:00:54;;;;;;;1.17;0.70;;;;;;;;;;5033559;28;20235;-66
2022/09/19 12:03:24;;;;;;;1.33;0.85;;;;;;;;;;5033806;28;20205;-65
2022/09/19 12:06:02;;;;;;;1.00;0.70;;;;;;;;;;5033410;28;20233;-64
2022/09/19 12:08:39;;;;;;;1.75;1.00;;;;;;;;;;5033160;28;20240;-64
2022/09/19 12:11:09;;;;;;;1.67;0.77;;;;;;;;;;5032274;28;20198;-64
2022/09/19 12:13:42;;;;;;;1.83;0.93;;;;;;;;;;5033303;28;20308;-64
2022/09/19 12:16:12;;;;;;;1.30;0.88;;;;;;;;;;5033177;28;20206;-65
2022/09/19 12:18:42;;;;;;;0.80;0.80;;;;;;;;;;5042351;28;20298;-63
2022/09/19 12:21:15;;;;;;;2.22;0.93;;;;;;;;;;5052658;28;20220;-63
2022/09/19 12:26:33;;;;;;;2.15;0.88;;;;;;;;;;5052083;28;20219;-64
2022/09/19 12:29:05;;;;;;;1.58;0.90;;;;;;;;;;5052219;28;20845;-63
2022/09/19 12:31:36;;;;;;;1.48;0.82;;;;;;;;;;5050833;28;20213;-63
2022/09/19 12:34:11;;;;;;;2.03;0.90;;;;;;;;;;5051809;28;20248;-63
2022/09/19 12:36:44;;;;;;;1.52;0.95;;;;;;;;;;5052881;28;20215;-63
2022/09/19 12:39:13;;;;;;;2.75;0.88;;;;;;;;;;5052598;28;20197;-63
2022/09/19 12:41:44;;;;;;;2.92;1.08;;;;;;;;;;5052979;28;20264;-63
2022/09/19 12:44:14;;;;;;;1.10;0.77;;;;;;;;;;5052701;28;20301;-63
2022/09/19 12:46:45;;;;;;;2.10;0.90;;;;;;;;;;5052343;28;20653;-63
2022/09/19 12:49:18;;;;;;;1.60;0.73;;;;;;;;;;5053088;28;20205;-63
2022/09/19 12:51:53;;;;;;;1.30;0.82;;;;;;;;;;5053012;28;20193;-64
2022/09/19 12:54:22;;;;;;;1.55;0.90;;;;;;;;;;5052834;28;20204;-63
2022/09/19 12:56:54;;;;;;;1.15;0.90;;;;;;;;;;5052176;28;20342;-63
2022/09/19 12:59:23;;;;;;;2.35;1.10;;;;;;;;;;5051821;28;20508;-63
2022/09/19 13:01:56;;;;;;;1.23;0.80;;;;;;;;;;5051547;28;20225;-63
2022/09/19 13:04:34;;;;;;;1.30;0.68;;;;;;;;;;5050835;28;20205;-63
2022/09/19 13:07:09;;;;;;;1.30;0.80;;;;;;;;;;5051512;28;20244;-63
2022/09/19 13:09:39;;;;;;;1.73;1.02;;;;;;;;;;5051224;28;20252;-63
2022/09/19 13:12:12;;;;;;;1.00;0.80;;;;;;;;;;5033613;28;20194;-63
2022/09/19 13:14:46;;;;;;;1.00;0.80;;;;;;;;;;5032170;28;20218;-64
2022/09/19 13:25:33;;;;;;;1.23;0.80;;;;;;;;;;5035034;28;20205;-63
2022/09/19 13:28:19;;;;;;;1.30;0.90;;;;;;;;;;5034712;28;20271;-63
2022/09/19 13:30:49;;;;;;;1.63;0.82;;;;;;;;;;5035798;28;20308;-63
2022/09/19 13:33:21;;;;;;;0.98;0.70;;;;;;;;;;5035437;28;20701;-63
2022/09/19 13:35:51;;;;;;;2.33;1.00;;;;;;;;;;5033974;28;20245;-63
2022/09/19 13:38:34;;;;;;;1.20;0.93;;;;;;;;;;5035304;28;20292;-63
2022/09/19 13:41:04;;;;;;;1.35;0.80;;;;;;;;;;5035019;28;20259;-63
2022/09/19 13:43:37;;;;;;;1.10;0.77;;;;;;;;;;5035680;28;20536;-63
2022/09/19 13:46:10;;;;;;;1.85;0.93;;;;;;;;;;5034996;28;20675;-63
2022/09/19 13:48:42;;;;;;;1.20;0.90;;;;;;;;;;5035397;28;20784;-63
2022/09/19 13:51:14;;;;;;;1.08;0.77;;;;;;;;;;5033694;28;20217;-63
2022/09/19 13:53:44;;;;;;;0.95;0.70;;;;;;;;;;5035189;28;20236;-63
2022/09/19 13:56:24;;;;;;;1.17;0.90;;;;;;;;;;5035052;28;20588;-63
2022/09/19 13:59:03;;;;;;;1.27;0.82;;;;;;;;;;5035729;28;20213;-63
2022/09/19 14:01:36;;;;;;;1.70;0.77;;;;;;;;;;5034794;28;20283;-63
2022/09/19 14:06:45;;;;;;;1.35;0.68;;;;;;;;;;5033689;28;20194;-64
2022/09/19 14:09:20;;;;;;;1.10;0.88;;;;;;;;;;5034572;28;20267;-63
2022/09/19 14:11:49;;;;;;;1.83;0.80;;;;;;;;;;5033589;28;20288;-63
2022/09/19 14:14:35;;;;;;;0.90;0.70;;;;;;;;;;5032974;28;20504;-63
2022/09/19 14:17:30;;;;;;;1.42;0.90;;;;;;;;;;5033994;28;20280;-63
2022/09/19 14:20:00;;;;;;;0.95;0.85;;;;;;;;;;5033440;28;20208;-63
2022/09/19 14:22:39;;;;;;;1.20;0.90;;;;;;;;;;5034284;28;20352;-63
2022/09/19 14:25:14;;;;;;;1.52;0.80;;;;;;;;;;5034091;28;20338;-63
2022/09/19 14:28:02;;;;;;;1.38;0.85;;;;;;;;;;5033397;28;20811;-63
2022/09/19 14:30:41;;;;;;;0.98;0.65;;;;;;;;;;5033612;28;20223;-63
2022/09/19 14:33:22;;;;;;;1.05;0.70;;;;;;;;;;5034165;28;20206;-63
2022/09/19 14:35:52;;;;;;;1.58;0.90;;;;;;;;;;5034225;28;20340;-63
2022/09/19 14:38:41;;;;;;;1.40;0.82;;;;;;;;;;5042465;28;20244;-64
2022/09/19 14:41:15;;;;;;;0.70;0.70;;;;;;;;;;5042181;28;20206;-63
2022/09/19 14:44:08;;;;;;;1.05;0.70;;;;;;;;;;5044079;28;20201;-63
2022/09/19 14:46:39;;;;;;;1.30;0.70;;;;;;;;;;5046701;28;20212;-63
2022/09/19 14:49:12;;;;;;;0.77;0.70;;;;;;;;;;5036164;28;20213;-64
2022/09/19 14:51:42;;;;;;;0.90;0.80;;;;;;;;;;5034875;28;20296;-63
2022/09/19 14:54:24;;;;;;;1.13;0.70;;;;;;;;;;5035398;28;20300;-64
2022/09/19 14:57:01;;;;;;;1.17;0.73;;;;;;;;;;5035510;28;20201;-63
2022/09/19 14:59:30;;;;;;;1.08;0.63;;;;;;;;;;5036058;28;20231;-63
2022/09/19 15:02:07;;;;;;;1.45;0.70;;;;;;;;;;5032681;28;20758;-63
2022/09/19 15:04:34;;;;;;;1.45;0.80;;;;;;;;;;5034302;28;20213;-63
2022/09/19 15:07:02;;;;;;;0.93;0.63;;;;;;;;;;5033527;28;20229;-63
2022/09/19 15:09:31;;;;;;;1.45;0.77;;;;;;;;;;5033883;28;20205;-64
2022/09/19 15:12:04;;;;;;;1.73;0.75;;;;;;;;;;5033454;28;20263;-63
2022/09/19 15:14:32;;;;;;;1.25;0.80;;;;;;;;;;5033852;28;20613;-63
2022/09/19 15:17:10;;;;;;;4.10;0.90;;;;;;;;;;5033265;28;20213;-63
2022/09/19 15:19:39;;;;;;;1.00;0.60;;;;;;;;;;5033283;28;20209;-63
2022/09/19 15:22:07;;;;;;;1.48;0.70;;;;;;;;;;5033629;28;20257;-63
2022/09/19 15:24:35;;;;;;;1.08;0.50;;;;;;;;;;5033682;28;20609;-63
2022/09/19 15:27:04;;;;;;;1.13;0.60;;;;;;;;;;5033806;28;20233;-64
2022/09/19 15:29:37;;;;;;;1.48;0.70;;;;;;;;;;5034050;28;20577;-63